Delray Beach, FL

2:39 PM EDT on September 23, 2014 (GMT -0400)
Pompano Beach | Change Station
CLOSE
Current Station
Airport
Location: Pompano Beach,
Elevation: 20 ft
Nearby Weather Stations

Elev 20 ft 26.25 °N, 80.11 °W | Updated 46 minutes ago

Overcast
Overcast
83 °F
Feels Like 87 °F
N
8
Wind Variable Wind from SSW

Today
High -- | Low -- °F
--% Chance of Precip.
Yesterday
High -- | Low -- °F
Precip. -- in
7:09 AM 7:15 PM
Waning Crescent, 0% visible
Pressure 30.02 in
Visibility 10.0 miles
Clouds Few 3500 ft
Mostly Cloudy 10000 ft
Heat Index 87 °F
Dew Point 70 °F
Humidity 65%
Rainfall 0.44 in
Snow Depth Not available.
UV 7 out of 12
Pollen 2.60 out of 12
Ozone Good
PM2.5 Good
Flu Activity Not available.
METAR KPMP 231753Z 20007KT 10SM FEW035 BKN100 28/21 A3002 RMK AO2 SLP165 60006 T02830211 10283 20239 58009

More Conditions Fewer Conditions

Pressure 30.02 in
Visibility 10.0 miles
Clouds Few 3500 ft
Mostly Cloudy 10000 ft
Heat Index 87 °F
Dew Point 70 °F
Humidity 65%
Rainfall 0.44 in
Snow Depth Not available.
UV 7 out of 12
Pollen 2.60 out of 12
Ozone Good
PM2.5 Good
Flu Activity Not available.
METAR KPMP 231753Z 20007KT 10SM FEW035 BKN100 28/21 A3002 RMK AO2 SLP165 60006 T02830211 10283 20239 58009

More Conditions Fewer Conditions

10-Day Weather Forecast

Almanac

Astronomy

Sep. 23, 2014 Rise Set
Actual Time 7:09 AM EDT 7:15 PM EDT
Civil Twilight 6:46 AM EDT 7:38 PM EDT
Nautical Twilight 6:19 AM EDT 8:05 PM EDT
Astronomical Twilight 5:52 AM EDT 8:32 PM EDT
Moon 6:33 AM EDT 6:54 PM EDT
Length of Visible Light 12h 52m
Length of Day
12h 06m
Tomorrow will be 1m 34s shorter.
Waning Crescent, 0% of the Moon is Illuminated
Today
Waning Crescent
Sep 24
New
Oct 1
First Quarter
Oct 8
Full
Oct 15
Last Quarter

Today's Extremes

State Highs State Lows

Community

WunderPhotos

Upload Photos

1,755,775 photos uploaded!

Nearby

Air Quality

  Air Quality AQ Index Pollutant
Yesterday Good
PM2.5
Yesterday Good
OZONE
Current Good
OZONE
Current Good
PM2.5
Tuesday Good
OZONE
Tuesday Good
PM2.5

Snow Depth

Station Depth Elevation
No new snow has been reported.

Earthquake Activity

City Distance Mag. Time & Date
No recent earthquake activity has been reported nearby.
Minimum magnitude displayed is 2.5.

Coastal Water Temperatures

Place Temperature
Lake Worth, FL 84.0 °F
Virginia Key, FL 84.0 °F

Nearby Weather Stations